Saturday, August 30, 2014, 10:31 PM EDT

KIPT, Williamsport-lycoming County

Location: Montoursville, PA, United States Lat: 41.25
Local Time: 10:31 PM EDT ( 2:31 GMT) Lon: -76.917
Time Zone: US/Eastern Elev: 528 ft

Show me the last for .
Show Decoded

2014-08-30 21:54 METAR KIPT 310154Z 03007KT 10SM OVC025 23/18 A3010 RMK AO2 SLP190 T02330178 =
2014-08-30 20:54 METAR KIPT 310054Z 07006KT 10SM OVC025 23/18 A3010 RMK AO2 SLP191 T02280178 =
2014-08-30 19:54 METAR KIPT 302354Z 07007KT 050V110 10SM OVC025 23/18 A3009 RMK AO2 SLP188
                 T02330178 10233 20222 55010 =
2014-08-30 18:54 METAR KIPT 302254Z 06007KT 10SM OVC025 23/18 A3009 RMK AO2 SLP186 T02330178 =
2014-08-30 17:54 METAR KIPT 302154Z VRB05KT 10SM OVC022 23/18 A3011 RMK AO2 SLP193 T02330178 =
2014-08-30 16:54 METAR KIPT 302054Z 10SM OVC020 23/18 A3012 RMK AO2 SLP198 T02330178 56015 =
2014-08-30 15:54 METAR KIPT 301954Z VRB03KT 10SM OVC021 23/17 A3013 RMK AO2 SLP201 T02280172 =
2014-08-30 15:18 METAR KIPT 301918Z VRB05KT 10SM BKN021 BKN030 OVC037 23/17 A3014 =
2014-08-30 15:06 METAR KIPT 301906Z AUTO VRB05KT 10SM SCT019 OVC037 23/17 A3014 RMK AO2 T02280172
                 =
2014-08-30 14:54 METAR KIPT 301854Z 15007KT 090V200 10SM BKN019 OVC036 22/17 A3014 =
2014-08-30 13:54 METAR KIPT 301754Z VRB06G17KT 10SM OVC017 22/17 A3017 RMK AO2 SLP213 T02220167
                 10222 20172 56014 =
2014-08-30 12:54 METAR KIPT 301654Z VRB03KT 10SM OVC015 21/16 A3018 RMK AO2 SLP219 T02110161 =
2014-08-30 12:44 METAR KIPT 301644Z 14006KT 10SM OVC015 21/17 A3018 RMK AO2 T02110167 =
2014-08-30 11:54 METAR KIPT 301554Z VRB03KT 10SM OVC013 20/16 A3019 RMK AO2 SLP223 T02000156 =
2014-08-30 10:54 METAR KIPT 301454Z 07004KT 10SM OVC014 20/16 A3021 RMK AO2 SLP227 T02000156
                 53000 =
2014-08-30 09:54 METAR KIPT 301354Z 08008KT 10SM OVC014 19/15 A3021 RMK AO2 SLP228 T01890150 =
2014-08-30 08:54 METAR KIPT 301254Z 07009KT 10SM OVC014 18/14 A3020 =
2014-08-30 07:54 METAR KIPT 301154Z 06005KT 10SM OVC017 17/13 A3021 =
2014-08-30 06:54 METAR KIPT 301054Z 28003KT 10SM OVC019 15/12 A3021 RMK AO2 SLP229 T01500122 =
2014-08-30 05:54 METAR KIPT 300954Z AUTO 09004KT 10SM BKN023 16/12 A3020 RMK AO2 SLP224 T01560122
                 =
2014-08-30 04:54 METAR KIPT 300854Z AUTO 09009KT 10SM CLR 15/12 A3019 RMK AO2 SLP221 T01500117
                 58002 =
2014-08-30 03:54 METAR KIPT 300754Z AUTO 08007KT 10SM CLR 15/12 A3020 RMK AO2 SLP224 T01500117 =
2014-08-30 02:54 METAR KIPT 300654Z AUTO 00000KT 10SM CLR 14/11 A3020 RMK AO2 SLP225 T01390111 =
2014-08-30 01:54 METAR KIPT 300554Z AUTO 00000KT 10SM CLR 14/12 A3020 RMK AO2 SLP223 T01440117
                 10194 20144 51002 =
2014-08-30 00:54 METAR KIPT 300454Z AUTO VRB04KT 10SM CLR 14/12 A3019 RMK AO2 SLP223 T01440122
                 402500100 =
2014-08-30 00:33 METAR KIPT 300433Z AUTO 00000KT 10SM FEW006 15/12 A3020 RMK AO2 T01500122 =
2014-08-29 23:54 METAR KIPT 300354Z AUTO 00000KT 10SM CLR 15/12 A3019 RMK AO2 SLP223 T01500122 =
2014-08-29 22:54 METAR KIPT 300254Z AUTO 00000KT 10SM CLR 16/13 A3019 RMK AO2 SLP222 T01610128
                 51011 =

Support USWX by starting your Amazon purchase here.